Terminal Aerodrome Forecast
Issued by NWS

Home | Current Version | Previous Version | Text Only | Print | Product List | Glossary On
Versions: 1 2 3 4 5 6 7 8 9 10 11 12
000
FTUS43 KDVN 281755
TAFBRL
TAF
KBRL 281755Z 2818/2918 16011KT P6SM OVC120
      TEMPO 2820/2824 4SM -SHRA BR OVC050
     FM290100 14009KT P6SM VCSH OVC040
     FM290800 17005KT 4SM BR OVC030
     FM291200 VRB03KT 3SM BR SCT010 OVC020
     FM291600 26006KT P6SM BKN025=

USA.gov is the U.S. government's official web portal to all federal, state and local government web resources and services.